Time;durP1;ratioP1;P1;durP2;ratioP2;P2;SDS_P1;SDS_P2;PMS_P1;PMS_P2;Temp;Humidity;BMP_temperature;BMP_pressure;BME280_temperature;BME280_humidity;BME280_pressure;Samples;Min_cycle;Max_cycle;Signal;HPM_P1;HPM_P2
2022/09/20 00:00:38;;;;;;;10.67;5.63;;;9.70;99.90;;;;;;5030641;28;20464;-64
2022/09/20 00:03:05;;;;;;;8.30;6.10;;;9.80;99.90;;;;;;5029425;28;20842;-64
2022/09/20 00:05:33;;;;;;;7.63;5.67;;;9.80;99.90;;;;;;5030693;28;20459;-65
2022/09/20 00:08:00;;;;;;;6.80;5.20;;;9.80;99.90;;;;;;5029976;28;20444;-65
2022/09/20 00:10:28;;;;;;;12.70;7.10;;;9.80;99.90;;;;;;5029931;28;20456;-65
2022/09/20 00:12:55;;;;;;;6.30;4.93;;;9.80;99.90;;;;;;5032234;28;20510;-66
2022/09/20 00:15:23;;;;;;;7.57;5.90;;;9.80;99.90;;;;;;5032826;28;20463;-64
2022/09/20 00:17:50;;;;;;;11.57;6.40;;;9.70;99.90;;;;;;5032212;28;20958;-66
2022/09/20 00:20:16;;;;;;;6.83;4.80;;;9.70;99.90;;;;;;5032769;28;20448;-64
2022/09/20 00:22:43;;;;;;;7.43;5.17;;;9.60;99.90;;;;;;5032213;28;20465;-66
2022/09/20 00:25:10;;;;;;;7.67;6.03;;;9.60;99.90;;;;;;5032681;28;20456;-65
2022/09/20 00:27:37;;;;;;;9.53;5.80;;;9.60;99.90;;;;;;5032736;28;20453;-67
2022/09/20 00:30:04;;;;;;;6.33;4.83;;;9.50;99.90;;;;;;5032379;28;20543;-64
2022/09/20 00:32:32;;;;;;;8.93;5.70;;;9.50;99.90;;;;;;5011964;28;20469;-63
2022/09/20 00:35:07;;;;;;;8.40;5.57;;;9.50;99.90;;;;;;5014357;28;20823;-66
2022/09/20 00:37:34;;;;;;;7.70;5.00;;;9.50;99.90;;;;;;5032677;28;20448;-66
2022/09/20 00:40:02;;;;;;;9.80;5.93;;;9.60;99.90;;;;;;5032324;28;20445;-66
2022/09/20 00:42:29;;;;;;;9.30;4.80;;;9.60;99.90;;;;;;5031962;28;20465;-66
2022/09/20 00:44:58;;;;;;;6.70;4.60;;;9.60;99.90;;;;;;5031981;28;20946;-64
2022/09/20 00:47:31;;;;;;;5.77;5.27;;;9.60;99.90;;;;;;5032450;28;20449;-65
2022/09/20 00:50:07;;;;;;;7.03;5.30;;;9.70;99.90;;;;;;5032315;28;20487;-64
2022/09/20 00:52:35;;;;;;;6.63;5.00;;;9.70;99.90;;;;;;5031902;28;20488;-65
2022/09/20 00:55:07;;;;;;;8.17;5.00;;;9.70;99.90;;;;;;5031111;28;20460;-65
2022/09/20 00:57:35;;;;;;;6.80;5.80;;;9.80;99.90;;;;;;5031923;28;20452;-65
2022/09/20 01:00:05;;;;;;;8.00;5.20;;;9.80;99.90;;;;;;5031976;28;20934;-65
2022/09/20 01:02:34;;;;;;;7.40;5.50;;;9.80;99.90;;;;;;5031599;28;20875;-65
2022/09/20 01:05:02;;;;;;;6.00;5.40;;;9.80;99.90;;;;;;5032338;28;20460;-64
2022/09/20 01:07:29;;;;;;;9.30;6.30;;;9.80;99.90;;;;;;5032055;28;20448;-65
2022/09/20 01:09:56;;;;;;;7.93;5.73;;;9.90;99.90;;;;;;5031738;28;20479;-64
2022/09/20 01:12:27;;;;;;;8.73;6.07;;;9.90;99.90;;;;;;5031628;28;20833;-64
2022/09/20 01:14:54;;;;;;;9.40;4.83;;;9.90;99.90;;;;;;5031729;28;20452;-65
2022/09/20 01:17:24;;;;;;;5.27;4.77;;;9.90;99.90;;;;;;5031798;28;20452;-65
2022/09/20 01:20:07;;;;;;;9.53;5.73;;;9.90;99.90;;;;;;5031647;28;20460;-64
2022/09/20 01:22:45;;;;;;;5.57;4.80;;;9.90;99.90;;;;;;5031175;28;20468;-65
2022/09/20 01:25:15;;;;;;;8.50;4.80;;;9.80;99.90;;;;;;5031739;28;20449;-62
2022/09/20 01:27:46;;;;;;;5.67;4.57;;;9.90;99.90;;;;;;5031740;28;20459;-65
2022/09/20 01:30:16;;;;;;;5.50;4.33;;;9.90;99.90;;;;;;5031460;28;20534;-65
2022/09/20 01:32:57;;;;;;;6.80;4.57;;;9.80;99.90;;;;;;5031002;28;20484;-65
2022/09/20 01:35:25;;;;;;;8.57;4.47;;;9.80;99.90;;;;;;5031546;28;20441;-65
2022/09/20 01:38:09;;;;;;;5.43;4.60;;;9.90;99.90;;;;;;5031466;28;20448;-65
2022/09/20 01:40:45;;;;;;;10.20;4.40;;;9.90;99.90;;;;;;5031320;28;20448;-65
2022/09/20 01:43:22;;;;;;;6.13;4.20;;;9.90;99.90;;;;;;5030879;28;20538;-65
2022/09/20 01:45:50;;;;;;;5.30;4.30;;;9.90;99.90;;;;;;5031269;28;20441;-64
2022/09/20 01:48:25;;;;;;;7.03;4.60;;;9.90;99.90;;;;;;5031232;28;20990;-62
2022/09/20 01:51:21;;;;;;;7.03;3.87;;;9.90;99.90;;;;;;5031571;28;20570;-64
2022/09/20 01:54:21;;;;;;;9.10;3.87;;;9.90;99.90;;;;;;5031709;28;21020;-65
2022/09/20 01:57:15;;;;;;;4.03;3.60;;;9.80;99.90;;;;;;5032246;28;20460;-64
2022/09/20 02:00:03;;;;;;;5.20;3.90;;;9.80;99.90;;;;;;5011100;28;20445;-64
2022/09/20 02:03:05;;;;;;;4.53;3.50;;;9.80;99.90;;;;;;5030903;28;20932;-64
2022/09/20 02:06:02;;;;;;;9.37;3.77;;;9.80;99.90;;;;;;5010704;28;20460;-64
2022/09/20 02:08:41;;;;;;;3.80;3.50;;;9.80;99.90;;;;;;4989578;28;20449;-66
2022/09/20 02:11:14;;;;;;;3.80;2.83;;;9.80;99.90;;;;;;5015827;28;20445;-65
2022/09/20 02:14:02;;;;;;;4.90;3.40;;;9.80;99.90;;;;;;5030152;28;20483;-66
2022/09/20 02:16:49;;;;;;;4.10;3.10;;;9.70;99.90;;;;;;5030517;28;21070;-65
2022/09/20 02:19:34;;;;;;;10.60;3.33;;;9.80;99.90;;;;;;5027718;28;20453;-65
2022/09/20 02:22:22;;;;;;;5.60;3.00;;;9.80;99.90;;;;;;5030021;28;20449;-64
2022/09/20 02:24:57;;;;;;;3.77;3.10;;;9.70;99.90;;;;;;5030532;28;20460;-65
2022/09/20 02:27:30;;;;;;;8.37;3.67;;;9.70;99.90;;;;;;5030574;28;20963;-65
2022/09/20 02:30:11;;;;;;;4.40;2.70;;;9.70;99.90;;;;;;5030468;28;20492;-65
2022/09/20 02:33:23;;;;;;;5.33;3.43;;;9.70;99.90;;;;;;5029862;28;20990;-65
2022/09/20 02:36:06;;;;;;;6.13;2.90;;;9.70;99.90;;;;;;5021488;28;20457;-65
2022/09/20 02:38:46;;;;;;;9.43;4.60;;;9.70;99.90;;;;;;5010698;28;20515;-65
2022/09/20 02:41:45;;;;;;;5.03;2.83;;;9.60;99.90;;;;;;5022451;28;20524;-65
2022/09/20 02:44:22;;;;;;;4.90;2.87;;;9.70;99.90;;;;;;5030318;28;20467;-65
2022/09/20 02:46:55;;;;;;;3.23;2.60;;;9.70;99.90;;;;;;5030213;28;20468;-66
2022/09/20 02:49:29;;;;;;;7.40;3.07;;;9.70;99.90;;;;;;5030199;28;20484;-65
2022/09/20 02:51:58;;;;;;;6.57;3.20;;;9.80;99.90;;;;;;5029416;28;20448;-64
2022/09/20 02:54:36;;;;;;;3.77;2.87;;;9.80;99.90;;;;;;5030008;28;20449;-64
2022/09/20 02:57:14;;;;;;;5.03;3.30;;;9.80;99.90;;;;;;5030083;28;20823;-65
2022/09/20 02:59:47;;;;;;;5.50;3.60;;;9.80;99.90;;;;;;5029944;28;20437;-65
2022/09/20 03:02:24;;;;;;;4.47;2.87;;;9.90;99.90;;;;;;5029728;28;20476;-66
2022/09/20 03:05:05;;;;;;;9.67;4.50;;;9.90;99.90;;;;;;5030098;28;20953;-65
2022/09/20 03:07:41;;;;;;;5.17;3.00;;;9.90;99.90;;;;;;5029941;28;20472;-65
2022/09/20 03:10:18;;;;;;;7.87;2.93;;;9.80;99.90;;;;;;5029681;28;20483;-64
2022/09/20 03:12:57;;;;;;;4.53;3.10;;;9.70;99.90;;;;;;5029237;28;20465;-64
2022/09/20 03:15:37;;;;;;;5.70;3.57;;;9.70;99.90;;;;;;5029945;28;20445;-65
2022/09/20 03:18:10;;;;;;;5.00;3.47;;;9.70;99.90;;;;;;5009393;28;20441;-65
2022/09/20 03:20:46;;;;;;;4.87;3.50;;;9.70;99.90;;;;;;5010007;28;20437;-64
2022/09/20 03:23:27;;;;;;;4.63;3.70;;;9.70;99.90;;;;;;5009727;28;20469;-65
2022/09/20 03:25:57;;;;;;;3.97;3.60;;;9.70;99.90;;;;;;5019908;28;20449;-64
2022/09/20 03:28:43;;;;;;;7.27;4.17;;;9.60;99.90;;;;;;5029757;28;20453;-64
2022/09/20 03:31:22;;;;;;;3.60;3.30;;;9.60;99.90;;;;;;5029754;28;20481;-64
2022/09/20 03:33:58;;;;;;;4.13;3.70;;;9.70;99.90;;;;;;5029424;28;20468;-64
2022/09/20 03:36:48;;;;;;;9.70;4.00;;;9.70;99.90;;;;;;5029666;28;20456;-64
2022/09/20 03:39:31;;;;;;;5.67;3.67;;;9.70;99.90;;;;;;5029414;28;20449;-65
2022/09/20 03:42:18;;;;;;;5.50;3.47;;;9.70;99.90;;;;;;5029074;28;20883;-64
2022/09/20 03:45:20;;;;;;;4.00;3.27;;;9.60;99.90;;;;;;5029734;28;20445;-63
2022/09/20 03:48:16;;;;;;;3.80;2.90;;;9.60;99.90;;;;;;5026801;28;20949;-64
2022/09/20 03:50:51;;;;;;;6.50;3.17;;;9.70;99.90;;;;;;5029356;28;20512;-64
2022/09/20 03:53:58;;;;;;;6.57;3.67;;;9.70;99.90;;;;;;5029313;28;20977;-65
2022/09/20 03:56:49;;;;;;;5.53;3.70;;;9.70;99.90;;;;;;4999663;28;20453;-64
2022/09/20 03:59:39;;;;;;;8.43;4.00;;;9.80;99.90;;;;;;5029845;28;20448;-65
2022/09/20 04:02:24;;;;;;;5.63;2.93;;;9.90;99.90;;;;;;5029272;28;20813;-65
2022/09/20 04:04:53;;;;;;;5.10;3.40;;;9.90;99.90;;;;;;5029624;28;20520;-65
2022/09/20 04:07:26;;;;;;;4.17;3.77;;;9.90;99.90;;;;;;5029094;28;20451;-65
2022/09/20 04:10:15;;;;;;;6.13;3.20;;;9.90;99.90;;;;;;5029165;28;20488;-65
2022/09/20 04:12:57;;;;;;;6.03;3.63;;;9.90;99.90;;;;;;5017810;28;20556;-65
2022/09/20 04:15:33;;;;;;;4.93;3.40;;;9.90;99.90;;;;;;5029077;28;20539;-65
2022/09/20 04:18:08;;;;;;;5.33;3.10;;;9.90;99.90;;;;;;5029531;28;20444;-65
2022/09/20 04:20:45;;;;;;;8.37;3.10;;;9.90;99.90;;;;;;5029124;28;20441;-66
2022/09/20 04:23:30;;;;;;;4.37;3.33;;;10.00;99.90;;;;;;5028750;28;20530;-64
2022/09/20 04:26:01;;;;;;;4.37;3.00;;;10.00;99.90;;;;;;5029386;28;20428;-64
2022/09/20 04:28:33;;;;;;;5.23;3.60;;;10.00;99.90;;;;;;5029757;28;20444;-65
2022/09/20 04:31:10;;;;;;;3.83;3.43;;;10.00;99.90;;;;;;5032417;28;20491;-63
2022/09/20 04:33:43;;;;;;;6.17;3.37;;;10.00;99.90;;;;;;5031183;28;20483;-65
2022/09/20 04:36:30;;;;;;;5.90;4.13;;;9.90;99.90;;;;;;5034501;28;20445;-64
2022/09/20 04:39:08;;;;;;;11.10;4.33;;;9.80;99.90;;;;;;5031859;28;20532;-66
2022/09/20 04:42:08;;;;;;;4.77;3.40;;;9.70;99.90;;;;;;5032337;28;20456;-66
2022/09/20 04:45:15;;;;;;;5.43;3.30;;;9.70;99.90;;;;;;5018442;28;20445;-65
2022/09/20 04:48:13;;;;;;;8.13;4.47;;;9.70;99.90;;;;;;5016475;28;20443;-65
2022/09/20 04:51:02;;;;;;;5.83;3.07;;;9.70;99.90;;;;;;5015184;28;20484;-64
2022/09/20 04:54:12;;;;;;;5.50;3.27;;;9.80;99.90;;;;;;5036013;28;20476;-64
2022/09/20 04:56:52;;;;;;;6.57;4.30;;;9.80;99.90;;;;;;5029885;28;20444;-67
2022/09/20 04:59:38;;;;;;;6.53;3.80;;;9.80;99.90;;;;;;5036041;28;20460;-64
2022/09/20 05:02:41;;;;;;;4.07;3.43;;;9.70;99.90;;;;;;5032675;28;20914;-67
2022/09/20 05:05:40;;;;;;;4.77;4.07;;;9.70;99.90;;;;;;4984523;28;20899;-65
2022/09/20 05:08:59;;;;;;;6.13;3.90;;;9.70;99.90;;;;;;5024197;28;20574;-66
2022/09/20 05:11:56;;;;;;;4.63;3.70;;;9.60;99.90;;;;;;4955000;28;20483;-65
2022/09/20 05:14:46;;;;;;;3.83;3.10;;;9.50;99.90;;;;;;5034674;28;20456;-65
2022/09/20 05:17:25;;;;;;;5.93;3.80;;;9.50;99.90;;;;;;5028689;28;20452;-66
2022/09/20 05:20:28;;;;;;;4.50;3.37;;;9.40;99.90;;;;;;5018679;28;20448;-66
2022/09/20 05:23:20;;;;;;;3.90;3.50;;;9.30;99.90;;;;;;5039933;28;20471;-66
2022/09/20 05:26:03;;;;;;;10.03;4.33;;;9.30;99.90;;;;;;5023476;28;20437;-66
2022/09/20 05:28:38;;;;;;;13.43;4.63;;;9.20;99.90;;;;;;5030965;28;20488;-65
2022/09/20 05:31:13;;;;;;;5.40;4.47;;;9.10;99.90;;;;;;5030502;28;20487;-64
2022/09/20 05:33:47;;;;;;;5.10;4.00;;;9.10;99.90;;;;;;5031288;28;20942;-65
2022/09/20 05:36:21;;;;;;;13.30;5.60;;;9.10;99.90;;;;;;5031364;28;20449;-66
2022/09/20 05:38:50;;;;;;;5.10;4.20;;;9.10;99.90;;;;;;5031038;28;20925;-63
2022/09/20 05:41:30;;;;;;;7.70;4.17;;;9.10;99.90;;;;;;5026473;28;20453;-64
2022/09/20 05:44:07;;;;;;;6.67;4.27;;;9.10;99.90;;;;;;5028058;28;20471;-65
2022/09/20 05:46:45;;;;;;;6.43;4.23;;;9.10;99.90;;;;;;5030073;28;20828;-65
2022/09/20 05:49:26;;;;;;;5.17;4.00;;;9.10;99.90;;;;;;5029939;28;20452;-65
2022/09/20 05:52:07;;;;;;;5.50;4.23;;;9.10;99.90;;;;;;5029736;28;20759;-66
2022/09/20 05:55:00;;;;;;;8.93;4.50;;;9.00;99.90;;;;;;5030232;28;20445;-65
2022/09/20 05:57:42;;;;;;;9.17;4.63;;;9.00;99.90;;;;;;5030074;28;20966;-66
2022/09/20 06:00:12;;;;;;;10.17;4.77;;;8.90;99.90;;;;;;5030160;28;20445;-66
2022/09/20 06:02:48;;;;;;;9.03;3.63;;;9.00;99.90;;;;;;5029112;28;21018;-65
2022/09/20 06:05:19;;;;;;;5.33;4.40;;;8.90;99.90;;;;;;5030219;28;20451;-66
2022/09/20 06:08:10;;;;;;;8.37;4.80;;;8.90;99.90;;;;;;5029799;28;20946;-65
2022/09/20 06:10:47;;;;;;;7.63;5.07;;;8.90;99.90;;;;;;5030218;28;20489;-66
2022/09/20 06:13:33;;;;;;;8.90;4.23;;;9.00;99.90;;;;;;5029011;28;20529;-63
2022/09/20 06:16:03;;;;;;;12.03;4.80;;;9.00;99.90;;;;;;5029862;28;20456;-63
2022/09/20 06:18:40;;;;;;;8.67;6.80;;;9.10;99.90;;;;;;5030021;28;20826;-65
2022/09/20 06:21:20;;;;;;;14.53;6.57;;;9.30;99.90;;;;;;5029436;28;20571;-64
2022/09/20 06:23:47;;;;;;;20.40;7.00;;;9.40;99.90;;;;;;5028549;28;20481;-64
2022/09/20 06:26:19;;;;;;;25.27;7.50;;;9.50;99.90;;;;;;5029358;28;20445;-66
2022/09/20 06:28:50;;;;;;;62.60;14.17;;;9.60;99.90;;;;;;5029708;28;20449;-68
2022/09/20 06:31:17;;;;;;;14.83;6.07;;;9.60;99.90;;;;;;5029658;28;20498;-67
2022/09/20 06:33:52;;;;;;;50.00;13.57;;;9.60;99.90;;;;;;5028938;28;20465;-68
2022/09/20 06:42:03;;;;;;;9.37;4.60;;;9.60;99.90;;;;;;5029022;28;20460;-65
2022/09/20 06:44:30;;;;;;;5.80;4.37;;;9.60;99.90;;;;;;5029004;28;20449;-64
2022/09/20 06:46:56;;;;;;;5.90;4.80;;;9.60;99.90;;;;;;5029930;28;20551;-65
2022/09/20 06:49:27;;;;;;;4.63;3.90;;;9.60;99.90;;;;;;5030052;28;20453;-65
2022/09/20 06:51:55;;;;;;;5.87;4.90;;;9.70;99.90;;;;;;5029387;28;20487;-65
2022/09/20 06:54:22;;;;;;;10.07;4.90;;;9.60;99.90;;;;;;5030086;28;20457;-65
2022/09/20 06:56:50;;;;;;;9.23;5.20;;;9.70;99.90;;;;;;5030072;28;20448;-65
2022/09/20 06:59:17;;;;;;;5.07;4.13;;;9.80;99.90;;;;;;5029205;28;20445;-66
2022/09/20 07:01:44;;;;;;;6.30;4.40;;;9.80;99.90;;;;;;5029524;28;20441;-66
2022/09/20 07:04:11;;;;;;;7.03;4.03;;;9.80;99.90;;;;;;5029820;28;20994;-65
2022/09/20 07:06:39;;;;;;;9.53;4.43;;;9.80;99.90;;;;;;5030082;28;20453;-65
2022/09/20 07:09:07;;;;;;;9.10;4.83;;;9.80;99.90;;;;;;5030439;28;20445;-65
2022/09/20 07:11:34;;;;;;;9.43;4.77;;;9.80;99.90;;;;;;5029733;28;21077;-65
2022/09/20 07:14:01;;;;;;;8.87;4.77;;;9.90;99.90;;;;;;5030049;28;20477;-66
2022/09/20 07:16:28;;;;;;;8.80;4.43;;;9.90;99.90;;;;;;5030012;28;20457;-66
2022/09/20 07:18:55;;;;;;;10.87;4.63;;;10.00;99.90;;;;;;5030591;28;20449;-65
2022/09/20 07:21:22;;;;;;;5.77;4.60;;;10.00;99.90;;;;;;5030479;28;20487;-65
2022/09/20 07:23:52;;;;;;;7.60;4.90;;;10.20;99.90;;;;;;5030091;28;20465;-66
2022/09/20 07:26:22;;;;;;;8.50;5.27;;;10.40;99.90;;;;;;5030094;28;20445;-66
2022/09/20 07:28:50;;;;;;;11.03;4.80;;;10.60;99.90;;;;;;5030084;28;20456;-66
2022/09/20 07:31:17;;;;;;;5.10;4.50;;;10.70;99.90;;;;;;5029989;28;20491;-65
2022/09/20 07:33:44;;;;;;;12.37;4.73;;;10.90;99.90;;;;;;5029649;28;20468;-65
2022/09/20 07:36:12;;;;;;;8.90;3.90;;;11.00;99.90;;;;;;5029527;28;20448;-65
2022/09/20 07:38:39;;;;;;;8.77;5.03;;;11.20;99.90;;;;;;5029530;28;20453;-64
2022/09/20 07:41:07;;;;;;;5.20;3.73;;;11.20;99.90;;;;;;5029404;28;20452;-64
2022/09/20 07:43:35;;;;;;;8.97;4.50;;;11.30;99.90;;;;;;5029260;28;20476;-65
2022/09/20 07:46:02;;;;;;;8.67;4.13;;;11.30;99.90;;;;;;5029569;28;20813;-65
2022/09/20 07:48:31;;;;;;;13.30;4.50;;;11.30;99.90;;;;;;5029486;28;20453;-65
2022/09/20 07:51:01;;;;;;;6.20;4.40;;;11.30;99.90;;;;;;5029313;28;20515;-66
2022/09/20 07:53:28;;;;;;;5.20;3.83;;;11.40;99.90;;;;;;5029034;28;20473;-65
2022/09/20 07:55:59;;;;;;;6.50;3.80;;;11.50;99.90;;;;;;5029464;28;20452;-65
2022/09/20 07:58:28;;;;;;;8.10;3.80;;;11.60;99.90;;;;;;5029564;28;20449;-66
2022/09/20 08:00:55;;;;;;;9.13;4.70;;;11.70;99.90;;;;;;5029490;28;20838;-65
2022/09/20 08:03:22;;;;;;;10.02;4.57;;;11.70;99.90;;;;;;5028414;28;20772;-65
2022/09/20 08:05:49;;;;;;;9.20;3.40;;;11.90;99.90;;;;;;5032958;28;20209;-66
2022/09/20 08:08:16;;;;;;;11.60;4.20;;;12.00;99.90;;;;;;5033133;28;20452;-65
2022/09/20 08:10:44;;;;;;;8.27;3.10;;;12.10;99.90;;;;;;5032952;28;20456;-66
2022/09/20 08:13:12;;;;;;;9.30;2.63;;;12.10;99.90;;;;;;5032661;28;20469;-65
2022/09/20 08:15:40;;;;;;;8.40;2.87;;;12.30;99.90;;;;;;5033228;28;20452;-66
2022/09/20 08:18:08;;;;;;;5.27;2.50;;;12.30;99.90;;;;;;5032973;28;20449;-66
2022/09/20 08:20:36;;;;;;;7.63;2.67;;;12.30;99.90;;;;;;5032976;28;20452;-66
2022/09/20 08:23:03;;;;;;;8.23;2.60;;;12.40;99.90;;;;;;5032770;28;20469;-67
2022/09/20 08:25:30;;;;;;;5.97;2.50;;;12.50;99.90;;;;;;5033140;28;20449;-65
2022/09/20 08:27:57;;;;;;;9.43;2.67;;;12.50;99.90;;;;;;5033140;28;21199;-65
2022/09/20 08:30:24;;;;;;;8.17;3.00;;;12.50;99.90;;;;;;5032897;28;20946;-66
2022/09/20 08:32:54;;;;;;;5.90;3.20;;;12.80;99.90;;;;;;5032257;28;20495;-66
2022/09/20 08:35:24;;;;;;;12.13;4.40;;;12.90;99.90;;;;;;5032776;28;20461;-65
2022/09/20 08:37:53;;;;;;;5.23;2.77;;;13.00;99.90;;;;;;5032948;28;20876;-66
2022/09/20 08:40:21;;;;;;;6.73;3.13;;;13.00;99.90;;;;;;5032896;28;20540;-66
2022/09/20 08:42:48;;;;;;;13.00;4.03;;;13.00;99.90;;;;;;5032197;28;20477;-66
2022/09/20 08:45:18;;;;;;;7.57;2.40;;;13.20;99.90;;;;;;5032493;28;20445;-66
2022/09/20 08:47:49;;;;;;;6.63;2.53;;;13.50;99.90;;;;;;5032910;28;20491;-66
2022/09/20 08:50:17;;;;;;;4.93;2.33;;;13.50;99.90;;;;;;5032339;28;20460;-66
2022/09/20 08:52:47;;;;;;;5.23;2.27;;;13.60;99.90;;;;;;5031803;28;20496;-66
2022/09/20 08:55:16;;;;;;;5.40;2.40;;;13.70;99.90;;;;;;5032312;28;20492;-65
2022/09/20 08:57:43;;;;;;;14.63;4.30;;;13.60;99.90;;;;;;5032149;28;20550;-66
2022/09/20 09:00:16;;;;;;;8.03;2.40;;;13.50;99.90;;;;;;5032001;28;20890;-65
2022/09/20 09:02:43;;;;;;;7.93;2.63;;;13.20;99.90;;;;;;5031928;28;20519;-65
2022/09/20 09:05:27;;;;;;;5.53;2.60;;;13.10;99.90;;;;;;5032076;28;20449;-66
2022/09/20 09:07:53;;;;;;;5.63;2.70;;;13.10;99.90;;;;;;5032100;28;20453;-65
2022/09/20 09:10:20;;;;;;;3.77;2.40;;;13.40;99.90;;;;;;5032123;28;20535;-66
2022/09/20 09:12:48;;;;;;;4.60;2.10;;;13.90;99.90;;;;;;5031636;28;20489;-66
2022/09/20 09:15:25;;;;;;;4.23;2.47;;;14.30;99.90;;;;;;5030769;28;20467;-66
2022/09/20 09:17:53;;;;;;;4.33;2.20;;;14.10;99.90;;;;;;5031754;28;20445;-65
2022/09/20 09:20:23;;;;;;;8.20;2.17;;;13.90;99.90;;;;;;5031859;28;20445;-66
2022/09/20 09:23:01;;;;;;;6.30;2.20;;;13.80;99.90;;;;;;5031188;28;20475;-65
2022/09/20 09:25:33;;;;;;;2.13;1.93;;;13.80;99.90;;;;;;5031730;28;20480;-65
2022/09/20 09:28:02;;;;;;;4.07;1.80;;;13.80;99.90;;;;;;5031861;28;20815;-66
2022/09/20 09:30:31;;;;;;;5.50;2.50;;;13.80;99.90;;;;;;5031730;28;20460;-66
2022/09/20 09:33:25;;;;;;;9.13;2.40;;;13.80;99.90;;;;;;5031161;28;20492;-66
2022/09/20 09:36:07;;;;;;;7.37;2.67;;;14.00;99.90;;;;;;5031740;28;20448;-65
2022/09/20 09:38:36;;;;;;;8.03;2.20;;;14.20;99.90;;;;;;5031750;28;20452;-66
2022/09/20 09:41:07;;;;;;;4.43;2.20;;;14.10;99.90;;;;;;5031456;28;21141;-65
2022/09/20 09:43:36;;;;;;;8.90;2.17;;;14.10;99.90;;;;;;5026200;28;20481;-65
2022/09/20 09:46:21;;;;;;;9.23;1.97;;;13.90;99.90;;;;;;5022071;28;20515;-65
2022/09/20 09:49:04;;;;;;;7.70;1.53;;;13.90;99.90;;;;;;5030262;28;20530;-66
2022/09/20 09:51:32;;;;;;;5.77;2.00;;;13.90;99.90;;;;;;5030118;28;20485;-66
2022/09/20 09:53:58;;;;;;;7.03;2.03;;;14.10;99.90;;;;;;5030277;28;20469;-66
2022/09/20 09:56:38;;;;;;;5.43;2.10;;;14.10;99.90;;;;;;5031146;28;20546;-66
2022/09/20 09:59:27;;;;;;;3.93;2.17;;;14.10;99.90;;;;;;5030790;28;20460;-66
2022/09/20 10:02:01;;;;;;;6.63;1.67;;;14.10;99.90;;;;;;5030612;28;20456;-65
2022/09/20 10:04:35;;;;;;;3.93;1.50;;;14.60;99.90;;;;;;5030929;28;20455;-67
2022/09/20 10:07:09;;;;;;;4.60;2.00;;;15.50;99.90;;;;;;5031185;28;20445;-65
2022/09/20 10:09:57;;;;;;;3.73;1.70;;;16.40;99.90;;;;;;5030928;28;20946;-65
2022/09/20 10:12:46;;;;;;;8.23;2.40;;;16.60;99.90;;;;;;5030373;28;21072;-64
2022/09/20 10:15:25;;;;;;;4.07;1.53;;;16.50;99.90;;;;;;5030697;28;20468;-66
2022/09/20 10:18:06;;;;;;;6.17;1.53;;;16.30;99.90;;;;;;5030912;28;20444;-66
2022/09/20 10:20:50;;;;;;;3.33;1.93;;;16.00;99.90;;;;;;5030705;28;20455;-66
2022/09/20 10:23:31;;;;;;;4.00;2.00;;;15.80;99.90;;;;;;5030191;28;20475;-66
2022/09/20 10:26:07;;;;;;;4.63;1.83;;;15.40;99.90;;;;;;5030427;28;20560;-66
2022/09/20 10:28:50;;;;;;;3.37;2.03;;;14.90;99.90;;;;;;5030664;28;20449;-66
2022/09/20 10:31:31;;;;;;;5.47;2.57;;;14.70;99.90;;;;;;5030326;28;20495;-66
2022/09/20 10:34:16;;;;;;;5.23;2.00;;;14.60;99.90;;;;;;5030389;28;20487;-66
2022/09/20 10:36:50;;;;;;;4.10;1.57;;;14.70;99.90;;;;;;5030680;28;20471;-66
2022/09/20 10:39:25;;;;;;;5.30;2.07;;;14.70;99.90;;;;;;5030538;28;20445;-66
2022/09/20 10:45:09;;;;;;;4.80;2.00;;;14.70;99.90;;;;;;5030562;28;20550;-64
2022/09/20 10:47:46;;;;;;;11.47;2.63;;;14.90;99.90;;;;;;5030444;28;20456;-66
2022/09/20 10:50:24;;;;;;;6.50;2.47;;;15.80;99.90;;;;;;5030577;28;20536;-66
2022/09/20 10:53:03;;;;;;;4.50;1.70;;;17.10;99.90;;;;;;5030094;28;20499;-66
2022/09/20 10:55:39;;;;;;;2.47;1.33;;;17.90;99.90;;;;;;5030162;28;20449;-65
2022/09/20 10:58:32;;;;;;;2.67;1.20;;;18.00;97.70;;;;;;5030033;28;20456;-66
2022/09/20 11:01:06;;;;;;;3.13;1.40;;;17.70;99.90;;;;;;5029929;28;20467;-66
2022/09/20 11:03:49;;;;;;;4.23;1.80;;;17.20;99.90;;;;;;5029671;28;20476;-65
2022/09/20 11:06:24;;;;;;;7.17;2.73;;;16.60;99.90;;;;;;5029931;28;20942;-65
2022/09/20 11:08:57;;;;;;;9.47;3.47;;;16.10;99.90;;;;;;5029944;28;20452;-65
2022/09/20 11:11:31;;;;;;;9.07;2.37;;;15.90;99.90;;;;;;5030005;28;20470;-66
2022/09/20 11:14:03;;;;;;;7.37;2.17;;;15.70;99.90;;;;;;5029399;28;20518;-66
2022/09/20 11:16:38;;;;;;;3.00;1.87;;;15.80;99.90;;;;;;5029934;28;20809;-65
2022/09/20 11:19:14;;;;;;;3.20;1.50;;;16.10;99.90;;;;;;5029951;28;20453;-65
2022/09/20 11:21:49;;;;;;;4.63;2.03;;;16.60;99.90;;;;;;5029640;28;20460;-64
2022/09/20 11:24:27;;;;;;;7.13;1.87;;;16.60;99.90;;;;;;5029901;28;20472;-65
2022/09/20 11:26:58;;;;;;;3.23;1.60;;;16.60;99.90;;;;;;5029853;28;20460;-66
2022/09/20 11:29:33;;;;;;;6.20;2.07;;;17.40;99.90;;;;;;5029627;28;20444;-66
2022/09/20 11:32:07;;;;;;;14.83;5.23;;;17.80;99.90;;;;;;5029380;28;20748;-66
2022/09/20 11:34:39;;;;;;;4.20;2.00;;;17.70;99.90;;;;;;5029512;28;20463;-66
2022/09/20 11:37:06;;;;;;;4.03;2.03;;;17.50;99.90;;;;;;5029691;28;20453;-66
2022/09/20 11:39:39;;;;;;;5.23;1.77;;;17.70;99.90;;;;;;5032518;28;20451;-65
2022/09/20 11:42:13;;;;;;;6.73;3.43;;;17.90;99.80;;;;;;5033353;28;20448;-65
2022/09/20 11:44:42;;;;;;;4.87;2.13;;;18.30;98.50;;;;;;5034016;28;20457;-66
2022/09/20 11:47:19;;;;;;;8.83;2.50;;;18.30;99.50;;;;;;5033614;28;20534;-66
2022/09/20 11:49:58;;;;;;;15.63;4.10;;;18.30;99.60;;;;;;5033675;28;20452;-66
2022/09/20 11:52:39;;;;;;;14.77;4.30;;;18.80;98.10;;;;;;5033021;28;20484;-66
2022/09/20 11:55:24;;;;;;;4.40;1.83;;;19.40;98.50;;;;;;5033342;28;20452;-66
2022/09/20 11:58:08;;;;;;;4.47;3.70;;;19.50;96.30;;;;;;5033534;28;20445;-66
2022/09/20 12:00:38;;;;;;;3.80;2.00;;;18.80;95.20;;;;;;5033425;28;20444;-66
2022/09/20 12:03:11;;;;;;;3.30;1.40;;;18.00;95.90;;;;;;5032936;28;20465;-65
2022/09/20 12:05:41;;;;;;;3.17;1.80;;;17.60;96.90;;;;;;5033458;28;20869;-66
2022/09/20 12:08:18;;;;;;;3.83;2.03;;;17.30;98.40;;;;;;5033100;28;20494;-65
2022/09/20 12:10:56;;;;;;;3.43;1.60;;;17.20;99.60;;;;;;5033425;28;20930;-66
2022/09/20 12:13:26;;;;;;;3.10;1.27;;;18.40;97.40;;;;;;5032300;28;20492;-65
2022/09/20 12:16:00;;;;;;;2.40;1.30;;;19.40;93.90;;;;;;5032982;28;20457;-66
2022/09/20 12:18:44;;;;;;;4.30;1.73;;;19.50;93.50;;;;;;5033176;28;20445;-66
2022/09/20 12:21:14;;;;;;;2.97;1.80;;;19.80;92.70;;;;;;5032994;28;20456;-66
2022/09/20 12:24:19;;;;;;;3.70;1.70;;;19.20;93.00;;;;;;5032914;28;20468;-66
2022/09/20 12:26:55;;;;;;;4.20;1.50;;;18.50;93.50;;;;;;5033041;28;20974;-65
2022/09/20 12:30:15;;;;;;;3.53;1.77;;;18.60;94.00;;;;;;5032639;28;20935;-66
2022/09/20 12:32:53;;;;;;;5.33;2.20;;;19.20;93.50;;;;;;5032272;28;20484;-66
2022/09/20 12:35:58;;;;;;;2.73;1.93;;;20.60;93.00;;;;;;5032835;28;20472;-66
2022/09/20 12:38:47;;;;;;;5.50;2.50;;;21.00;91.30;;;;;;5032589;28;20938;-65
2022/09/20 12:41:17;;;;;;;3.50;1.70;;;20.50;91.10;;;;;;5032969;28;20863;-65
2022/09/20 12:43:58;;;;;;;5.70;1.90;;;19.90;91.50;;;;;;5032480;28;20465;-66
2022/09/20 12:46:31;;;;;;;17.97;2.73;;;19.60;91.40;;;;;;5032909;28;20935;-66
2022/09/20 12:52:55;;;;;;;2.60;1.70;;;19.50;92.20;;;;;;5032103;28;20519;-67
2022/09/20 12:55:38;;;;;;;3.67;2.77;;;19.80;90.60;;;;;;5033186;28;20498;-65
2022/09/20 12:58:17;;;;;;;4.57;1.53;;;20.40;91.40;;;;;;5033237;28;20853;-65
2022/09/20 13:00:46;;;;;;;6.07;1.40;;;20.90;90.60;;;;;;5033362;28;20441;-66
2022/09/20 13:03:27;;;;;;;5.63;1.80;;;23.10;91.90;;;;;;5032424;28;20464;-67
2022/09/20 13:06:26;;;;;;;3.97;1.83;;;25.90;87.30;;;;;;5033103;28;20806;-66
2022/09/20 13:09:02;;;;;;;5.20;2.40;;;24.80;71.80;;;;;;5032119;28;21014;-67
2022/09/20 13:11:33;;;;;;;3.63;2.00;;;23.50;80.80;;;;;;5029480;28;20452;-66
2022/09/20 13:14:06;;;;;;;8.83;2.47;;;23.00;82.90;;;;;;5027315;28;20489;-65
2022/09/20 13:16:45;;;;;;;8.17;1.90;;;23.40;86.20;;;;;;5030975;28;20449;-67
2022/09/20 13:19:17;;;;;;;5.00;2.30;;;23.90;83.50;;;;;;5028836;28;20969;-67
2022/09/20 13:21:53;;;;;;;2.90;1.93;;;21.90;86.70;;;;;;5026606;28;20452;-66
2022/09/20 13:24:25;;;;;;;5.43;2.43;;;19.60;89.70;;;;;;5030633;28;20480;-66
2022/09/20 13:26:54;;;;;;;4.47;1.93;;;18.10;93.80;;;;;;5027718;28;20500;-66
2022/09/20 13:29:27;;;;;;;4.00;1.93;;;17.70;94.90;;;;;;5011961;28;20465;-66
2022/09/20 13:31:55;;;;;;;2.70;1.73;;;17.40;95.30;;;;;;5011698;28;20457;-66
2022/09/20 13:34:23;;;;;;;8.73;2.00;;;17.00;96.00;;;;;;5011713;28;20568;-66
2022/09/20 13:36:54;;;;;;;6.77;2.73;;;16.80;96.30;;;;;;5017692;28;20898;-66
2022/09/20 13:39:28;;;;;;;7.53;2.50;;;16.60;97.00;;;;;;5031420;28;20445;-66
2022/09/20 13:42:01;;;;;;;5.60;2.40;;;16.30;97.20;;;;;;5031103;28;20999;-66
2022/09/20 13:44:29;;;;;;;5.90;3.90;;;16.10;97.70;;;;;;5031556;28;21140;-66
2022/09/20 13:46:56;;;;;;;6.10;2.10;;;16.10;97.30;;;;;;5031153;28;20445;-66
2022/09/20 13:49:24;;;;;;;7.20;3.00;;;15.90;96.90;;;;;;5031158;28;20444;-65